sensor_id;sensor_type;location;lat;lon;timestamp;temperature;humidity
20740;DHT22;10530;49.968;19.844;2022-12-07T00:00:18;3.40;99.90
20740;DHT22;10530;49.968;19.844;2022-12-07T00:05:21;3.30;99.90
20740;DHT22;10530;49.968;19.844;2022-12-07T00:10:24;3.30;99.90
20740;DHT22;10530;49.968;19.844;2022-12-07T00:15:27;3.30;99.90
20740;DHT22;10530;49.968;19.844;2022-12-07T00:20:30;3.30;99.90
20740;DHT22;10530;49.968;19.844;2022-12-07T00:25:33;3.30;99.90
20740;DHT22;10530;49.968;19.844;2022-12-07T00:30:36;3.30;99.90
20740;DHT22;10530;49.968;19.844;2022-12-07T00:35:39;3.30;99.90
20740;DHT22;10530;49.968;19.844;2022-12-07T00:40:41;3.30;99.90
20740;DHT22;10530;49.968;19.844;2022-12-07T00:45:44;3.40;99.90
20740;DHT22;10530;49.968;19.844;2022-12-07T00:50:47;3.30;99.90
20740;DHT22;10530;49.968;19.844;2022-12-07T00:55:51;3.30;99.90
20740;DHT22;10530;49.968;19.844;2022-12-07T01:01:00;3.30;99.90
20740;DHT22;10530;49.968;19.844;2022-12-07T01:06:04;3.40;99.90
20740;DHT22;10530;49.968;19.844;2022-12-07T01:11:11;3.40;99.90
20740;DHT22;10530;49.968;19.844;2022-12-07T01:16:16;3.40;99.90
20740;DHT22;10530;49.968;19.844;2022-12-07T01:21:24;3.30;99.90
20740;DHT22;10530;49.968;19.844;2022-12-07T01:26:27;3.30;99.90
20740;DHT22;10530;49.968;19.844;2022-12-07T01:31:30;3.40;99.90
20740;DHT22;10530;49.968;19.844;2022-12-07T01:36:35;3.40;99.90
20740;DHT22;10530;49.968;19.844;2022-12-07T01:41:40;3.40;99.90
20740;DHT22;10530;49.968;19.844;2022-12-07T01:46:48;3.30;99.90
20740;DHT22;10530;49.968;19.844;2022-12-07T01:51:58;3.30;99.90
20740;DHT22;10530;49.968;19.844;2022-12-07T01:57:03;3.20;99.90
20740;DHT22;10530;49.968;19.844;2022-12-07T02:02:17;3.20;99.90
20740;DHT22;10530;49.968;19.844;2022-12-07T02:07:21;3.10;99.90
20740;DHT22;10530;49.968;19.844;2022-12-07T02:12:26;3.10;99.90
20740;DHT22;10530;49.968;19.844;2022-12-07T02:17:38;3.10;99.90
20740;DHT22;10530;49.968;19.844;2022-12-07T02:28:35;3.20;99.90
20740;DHT22;10530;49.968;19.844;2022-12-07T02:33:45;3.20;99.90
20740;DHT22;10530;49.968;19.844;2022-12-07T02:39:17;3.20;99.90
20740;DHT22;10530;49.968;19.844;2022-12-07T02:44:24;3.20;99.90
20740;DHT22;10530;49.968;19.844;2022-12-07T02:49:29;3.20;99.90
20740;DHT22;10530;49.968;19.844;2022-12-07T02:54:32;3.20;99.90
20740;DHT22;10530;49.968;19.844;2022-12-07T03:05:20;3.20;99.90
20740;DHT22;10530;49.968;19.844;2022-12-07T03:10:40;3.20;99.90
20740;DHT22;10530;49.968;19.844;2022-12-07T03:16:27;3.20;99.90
20740;DHT22;10530;49.968;19.844;2022-12-07T03:21:36;3.00;99.90
20740;DHT22;10530;49.968;19.844;2022-12-07T03:26:44;3.10;99.90
20740;DHT22;10530;49.968;19.844;2022-12-07T03:31:55;3.10;99.90
20740;DHT22;10530;49.968;19.844;2022-12-07T03:37:10;3.20;99.90
20740;DHT22;10530;49.968;19.844;2022-12-07T03:42:15;3.20;99.90
20740;DHT22;10530;49.968;19.844;2022-12-07T03:48:22;3.20;99.90
20740;DHT22;10530;49.968;19.844;2022-12-07T03:53:40;3.10;99.90
20740;DHT22;10530;49.968;19.844;2022-12-07T03:58:46;3.10;99.90
20740;DHT22;10530;49.968;19.844;2022-12-07T04:03:50;3.10;99.90
20740;DHT22;10530;49.968;19.844;2022-12-07T04:08:52;3.10;99.90
20740;DHT22;10530;49.968;19.844;2022-12-07T04:13:55;3.10;99.90
20740;DHT22;10530;49.968;19.844;2022-12-07T04:19:18;3.10;99.90
20740;DHT22;10530;49.968;19.844;2022-12-07T04:24:21;3.20;99.90
20740;DHT22;10530;49.968;19.844;2022-12-07T04:29:24;3.30;99.90
20740;DHT22;10530;49.968;19.844;2022-12-07T04:34:27;3.30;99.90
20740;DHT22;10530;49.968;19.844;2022-12-07T04:39:31;3.30;99.90
20740;DHT22;10530;49.968;19.844;2022-12-07T04:44:34;3.40;99.90
20740;DHT22;10530;49.968;19.844;2022-12-07T04:49:38;3.50;99.90
20740;DHT22;10530;49.968;19.844;2022-12-07T04:54:41;3.50;99.90
20740;DHT22;10530;49.968;19.844;2022-12-07T04:59:43;3.60;99.90
20740;DHT22;10530;49.968;19.844;2022-12-07T05:04:47;3.60;99.90
20740;DHT22;10530;49.968;19.844;2022-12-07T05:09:50;3.70;99.90
20740;DHT22;10530;49.968;19.844;2022-12-07T05:14:52;3.70;99.90
20740;DHT22;10530;49.968;19.844;2022-12-07T05:19:55;3.70;99.90
20740;DHT22;10530;49.968;19.844;2022-12-07T05:24:58;3.70;99.90
20740;DHT22;10530;49.968;19.844;2022-12-07T05:30:01;3.70;99.90
20740;DHT22;10530;49.968;19.844;2022-12-07T05:35:05;3.70;99.90
20740;DHT22;10530;49.968;19.844;2022-12-07T05:40:09;3.70;99.90
20740;DHT22;10530;49.968;19.844;2022-12-07T05:45:12;3.70;99.90
20740;DHT22;10530;49.968;19.844;2022-12-07T05:50:14;3.70;99.90
20740;DHT22;10530;49.968;19.844;2022-12-07T05:55:18;3.70;99.90
20740;DHT22;10530;49.968;19.844;2022-12-07T06:00:21;3.70;99.90
20740;DHT22;10530;49.968;19.844;2022-12-07T06:05:24;3.60;99.90
20740;DHT22;10530;49.968;19.844;2022-12-07T06:10:27;3.60;99.90
20740;DHT22;10530;49.968;19.844;2022-12-07T06:15:30;3.30;99.90
20740;DHT22;10530;49.968;19.844;2022-12-07T06:20:33;3.20;99.90
20740;DHT22;10530;49.968;19.844;2022-12-07T06:25:36;3.10;99.90
20740;DHT22;10530;49.968;19.844;2022-12-07T06:30:38;3.00;99.90
20740;DHT22;10530;49.968;19.844;2022-12-07T06:35:41;2.80;99.90
20740;DHT22;10530;49.968;19.844;2022-12-07T06:40:44;2.80;99.90
20740;DHT22;10530;49.968;19.844;2022-12-07T06:45:47;2.80;99.90
20740;DHT22;10530;49.968;19.844;2022-12-07T06:50:50;2.90;99.90
20740;DHT22;10530;49.968;19.844;2022-12-07T06:55:56;2.90;99.90
20740;DHT22;10530;49.968;19.844;2022-12-07T07:00:59;2.80;99.90
20740;DHT22;10530;49.968;19.844;2022-12-07T07:06:03;2.80;99.90
20740;DHT22;10530;49.968;19.844;2022-12-07T07:11:07;2.80;99.90
20740;DHT22;10530;49.968;19.844;2022-12-07T07:16:12;2.80;99.90
20740;DHT22;10530;49.968;19.844;2022-12-07T07:21:15;2.70;99.90
20740;DHT22;10530;49.968;19.844;2022-12-07T07:26:18;2.70;99.90
20740;DHT22;10530;49.968;19.844;2022-12-07T07:31:24;2.70;99.90
20740;DHT22;10530;49.968;19.844;2022-12-07T07:36:27;2.80;99.90
20740;DHT22;10530;49.968;19.844;2022-12-07T07:41:31;2.70;99.90
20740;DHT22;10530;49.968;19.844;2022-12-07T07:46:33;2.70;99.90
20740;DHT22;10530;49.968;19.844;2022-12-07T07:51:37;2.80;99.90
20740;DHT22;10530;49.968;19.844;2022-12-07T07:56:40;2.80;99.90
20740;DHT22;10530;49.968;19.844;2022-12-07T08:01:43;2.90;99.90
20740;DHT22;10530;49.968;19.844;2022-12-07T08:07:36;2.90;99.90
20740;DHT22;10530;49.968;19.844;2022-12-07T08:14:44;2.80;99.90
20740;DHT22;10530;49.968;19.844;2022-12-07T12:28:32;5.30;99.90
20740;DHT22;10530;49.968;19.844;2022-12-07T12:33:49;5.40;99.90
20740;DHT22;10530;49.968;19.844;2022-12-07T12:39:10;5.30;99.90
20740;DHT22;10530;49.968;19.844;2022-12-07T12:54:37;5.00;99.90
20740;DHT22;10530;49.968;19.844;2022-12-07T13:15:34;6.30;99.90
20740;DHT22;10530;49.968;19.844;2022-12-07T13:31:30;5.20;99.90
20740;DHT22;10530;49.968;19.844;2022-12-07T13:36:38;5.30;99.90
20740;DHT22;10530;49.968;19.844;2022-12-07T13:41:42;5.30;99.90
20740;DHT22;10530;49.968;19.844;2022-12-07T13:47:23;5.30;99.90
20740;DHT22;10530;49.968;19.844;2022-12-07T13:52:31;5.00;99.90
20740;DHT22;10530;49.968;19.844;2022-12-07T13:57:35;4.90;99.90
20740;DHT22;10530;49.968;19.844;2022-12-07T14:02:57;4.80;99.90
20740;DHT22;10530;49.968;19.844;2022-12-07T14:08:05;4.70;99.90
20740;DHT22;10530;49.968;19.844;2022-12-07T14:13:31;4.70;99.90
20740;DHT22;10530;49.968;19.844;2022-12-07T14:18:40;4.50;99.90
20740;DHT22;10530;49.968;19.844;2022-12-07T14:23:44;4.40;99.90
20740;DHT22;10530;49.968;19.844;2022-12-07T14:28:47;4.30;99.90
20740;DHT22;10530;49.968;19.844;2022-12-07T14:33:50;4.10;99.90
20740;DHT22;10530;49.968;19.844;2022-12-07T14:38:53;4.10;99.90
20740;DHT22;10530;49.968;19.844;2022-12-07T14:43:58;4.00;99.90
20740;DHT22;10530;49.968;19.844;2022-12-07T14:49:21;4.00;99.90
20740;DHT22;10530;49.968;19.844;2022-12-07T14:54:41;4.10;99.90
20740;DHT22;10530;49.968;19.844;2022-12-07T14:59:44;4.00;99.90
20740;DHT22;10530;49.968;19.844;2022-12-07T15:04:47;3.90;99.90
20740;DHT22;10530;49.968;19.844;2022-12-07T15:09:50;3.80;99.90
20740;DHT22;10530;49.968;19.844;2022-12-07T15:14:54;3.80;99.90
20740;DHT22;10530;49.968;19.844;2022-12-07T15:19:56;3.80;99.90
20740;DHT22;10530;49.968;19.844;2022-12-07T15:24:59;3.80;99.90
20740;DHT22;10530;49.968;19.844;2022-12-07T15:30:03;3.70;99.90
20740;DHT22;10530;49.968;19.844;2022-12-07T15:35:07;3.80;99.90
20740;DHT22;10530;49.968;19.844;2022-12-07T15:40:10;3.80;99.90
20740;DHT22;10530;49.968;19.844;2022-12-07T15:45:13;3.80;99.90
20740;DHT22;10530;49.968;19.844;2022-12-07T15:50:16;3.80;99.90
20740;DHT22;10530;49.968;19.844;2022-12-07T15:55:19;3.90;99.90
20740;DHT22;10530;49.968;19.844;2022-12-07T16:00:22;3.90;99.90
20740;DHT22;10530;49.968;19.844;2022-12-07T16:05:25;3.90;99.90
20740;DHT22;10530;49.968;19.844;2022-12-07T16:10:28;3.90;99.90
20740;DHT22;10530;49.968;19.844;2022-12-07T16:15:31;3.90;99.90
20740;DHT22;10530;49.968;19.844;2022-12-07T16:20:34;3.90;99.90
20740;DHT22;10530;49.968;19.844;2022-12-07T16:25:36;3.90;99.90
20740;DHT22;10530;49.968;19.844;2022-12-07T16:30:39;3.90;99.90
20740;DHT22;10530;49.968;19.844;2022-12-07T16:35:42;4.00;99.90
20740;DHT22;10530;49.968;19.844;2022-12-07T16:40:47;4.00;99.90
20740;DHT22;10530;49.968;19.844;2022-12-07T16:45:50;4.00;99.90
20740;DHT22;10530;49.968;19.844;2022-12-07T16:50:53;4.10;99.90
20740;DHT22;10530;49.968;19.844;2022-12-07T16:55:56;4.10;99.90
20740;DHT22;10530;49.968;19.844;2022-12-07T17:00:59;4.10;99.90
20740;DHT22;10530;49.968;19.844;2022-12-07T17:06:02;4.10;99.90
20740;DHT22;10530;49.968;19.844;2022-12-07T17:11:19;4.20;99.90
20740;DHT22;10530;49.968;19.844;2022-12-07T17:16:23;4.10;99.90
20740;DHT22;10530;49.968;19.844;2022-12-07T17:21:26;4.10;99.90
20740;DHT22;10530;49.968;19.844;2022-12-07T17:26:29;4.00;99.90
20740;DHT22;10530;49.968;19.844;2022-12-07T17:31:37;4.00;99.90
20740;DHT22;10530;49.968;19.844;2022-12-07T17:36:41;3.90;99.90
20740;DHT22;10530;49.968;19.844;2022-12-07T17:41:44;3.70;99.90
20740;DHT22;10530;49.968;19.844;2022-12-07T17:47:05;3.60;99.90
20740;DHT22;10530;49.968;19.844;2022-12-07T17:52:09;3.60;99.90
20740;DHT22;10530;49.968;19.844;2022-12-07T17:57:30;3.50;99.90
20740;DHT22;10530;49.968;19.844;2022-12-07T18:02:33;3.40;99.90
20740;DHT22;10530;49.968;19.844;2022-12-07T18:07:36;3.50;99.90
20740;DHT22;10530;49.968;19.844;2022-12-07T18:12:39;3.50;99.90
20740;DHT22;10530;49.968;19.844;2022-12-07T18:17:42;3.50;99.90
20740;DHT22;10530;49.968;19.844;2022-12-07T18:22:45;3.60;99.90
20740;DHT22;10530;49.968;19.844;2022-12-07T18:27:48;3.60;99.90
20740;DHT22;10530;49.968;19.844;2022-12-07T18:32:51;3.60;99.90
20740;DHT22;10530;49.968;19.844;2022-12-07T18:37:54;3.70;99.90
20740;DHT22;10530;49.968;19.844;2022-12-07T18:42:56;3.70;99.90
20740;DHT22;10530;49.968;19.844;2022-12-07T18:47:59;3.60;99.90
20740;DHT22;10530;49.968;19.844;2022-12-07T18:53:03;3.50;99.90
20740;DHT22;10530;49.968;19.844;2022-12-07T18:58:06;3.30;99.90
20740;DHT22;10530;49.968;19.844;2022-12-07T19:03:09;3.00;99.90
20740;DHT22;10530;49.968;19.844;2022-12-07T19:08:12;3.00;99.90
20740;DHT22;10530;49.968;19.844;2022-12-07T19:13:15;2.80;99.90
20740;DHT22;10530;49.968;19.844;2022-12-07T19:18:18;2.70;99.90
20740;DHT22;10530;49.968;19.844;2022-12-07T19:23:21;2.80;99.90
20740;DHT22;10530;49.968;19.844;2022-12-07T19:28:26;2.90;99.90
20740;DHT22;10530;49.968;19.844;2022-12-07T19:33:29;3.00;99.90
20740;DHT22;10530;49.968;19.844;2022-12-07T19:38:33;3.00;99.90
20740;DHT22;10530;49.968;19.844;2022-12-07T19:43:36;3.10;99.90
20740;DHT22;10530;49.968;19.844;2022-12-07T19:48:39;3.20;99.90
20740;DHT22;10530;49.968;19.844;2022-12-07T19:53:42;3.20;99.90
20740;DHT22;10530;49.968;19.844;2022-12-07T19:58:45;3.30;99.90
20740;DHT22;10530;49.968;19.844;2022-12-07T20:03:49;3.30;99.90
20740;DHT22;10530;49.968;19.844;2022-12-07T20:08:52;3.40;99.90
20740;DHT22;10530;49.968;19.844;2022-12-07T20:13:55;3.50;99.90
20740;DHT22;10530;49.968;19.844;2022-12-07T20:18:59;3.60;99.90
20740;DHT22;10530;49.968;19.844;2022-12-07T20:24:03;3.60;99.90
20740;DHT22;10530;49.968;19.844;2022-12-07T20:29:08;3.70;99.90
20740;DHT22;10530;49.968;19.844;2022-12-07T20:34:25;3.70;99.90
20740;DHT22;10530;49.968;19.844;2022-12-07T20:39:30;3.70;99.90
20740;DHT22;10530;49.968;19.844;2022-12-07T20:44:35;3.80;99.90
20740;DHT22;10530;49.968;19.844;2022-12-07T20:49:38;3.80;99.90
20740;DHT22;10530;49.968;19.844;2022-12-07T20:54:41;3.90;99.90
20740;DHT22;10530;49.968;19.844;2022-12-07T20:59:44;3.90;99.90
20740;DHT22;10530;49.968;19.844;2022-12-07T21:04:47;3.90;99.90
20740;DHT22;10530;49.968;19.844;2022-12-07T21:09:50;3.80;99.90
20740;DHT22;10530;49.968;19.844;2022-12-07T21:14:53;3.80;99.90
20740;DHT22;10530;49.968;19.844;2022-12-07T21:19:56;3.80;99.90
20740;DHT22;10530;49.968;19.844;2022-12-07T21:24:59;3.80;99.90
20740;DHT22;10530;49.968;19.844;2022-12-07T21:30:06;3.80;99.90
20740;DHT22;10530;49.968;19.844;2022-12-07T21:35:09;3.90;99.90
20740;DHT22;10530;49.968;19.844;2022-12-07T21:40:12;3.90;99.90
20740;DHT22;10530;49.968;19.844;2022-12-07T21:45:18;3.90;99.90
20740;DHT22;10530;49.968;19.844;2022-12-07T21:50:21;4.00;99.90
20740;DHT22;10530;49.968;19.844;2022-12-07T21:55:23;4.00;99.90
20740;DHT22;10530;49.968;19.844;2022-12-07T22:00:26;4.00;99.90
20740;DHT22;10530;49.968;19.844;2022-12-07T22:05:29;4.00;99.90
20740;DHT22;10530;49.968;19.844;2022-12-07T22:10:32;4.00;99.90
20740;DHT22;10530;49.968;19.844;2022-12-07T22:15:35;4.00;99.90
20740;DHT22;10530;49.968;19.844;2022-12-07T22:20:41;4.00;99.90
20740;DHT22;10530;49.968;19.844;2022-12-07T22:25:44;4.00;99.90
20740;DHT22;10530;49.968;19.844;2022-12-07T22:30:47;3.90;99.90
20740;DHT22;10530;49.968;19.844;2022-12-07T22:35:52;3.90;99.90
20740;DHT22;10530;49.968;19.844;2022-12-07T22:40:55;3.80;99.90
20740;DHT22;10530;49.968;19.844;2022-12-07T22:45:59;3.80;99.90
20740;DHT22;10530;49.968;19.844;2022-12-07T22:51:02;3.70;99.90
20740;DHT22;10530;49.968;19.844;2022-12-07T22:56:05;3.70;99.90
20740;DHT22;10530;49.968;19.844;2022-12-07T23:01:09;3.60;99.90
20740;DHT22;10530;49.968;19.844;2022-12-07T23:06:24;3.60;99.90
20740;DHT22;10530;49.968;19.844;2022-12-07T23:11:30;3.60;99.90
20740;DHT22;10530;49.968;19.844;2022-12-07T23:16:52;3.60;99.90
20740;DHT22;10530;49.968;19.844;2022-12-07T23:21:55;3.60;99.90
20740;DHT22;10530;49.968;19.844;2022-12-07T23:26:58;3.60;99.90
20740;DHT22;10530;49.968;19.844;2022-12-07T23:32:00;3.50;99.90
20740;DHT22;10530;49.968;19.844;2022-12-07T23:37:03;3.50;99.90
20740;DHT22;10530;49.968;19.844;2022-12-07T23:42:06;3.50;99.90
20740;DHT22;10530;49.968;19.844;2022-12-07T23:47:09;3.50;99.90
20740;DHT22;10530;49.968;19.844;2022-12-07T23:52:11;3.50;99.90
20740;DHT22;10530;49.968;19.844;2022-12-07T23:57:14;3.50;99.90
